sensor_id;sensor_type;location;lat;lon;timestamp;pressure;altitude;pressure_sealevel;temperature;humidity
18755;BME280;35061;47.664;9.166;2023-05-01T00:02:23;101398.39;;;13.52;62.00
18755;BME280;35061;47.664;9.166;2023-05-01T00:04:51;101392.84;;;13.49;62.01
18755;BME280;35061;47.664;9.166;2023-05-01T00:07:19;101389.17;;;13.48;62.07
18755;BME280;35061;47.664;9.166;2023-05-01T00:09:47;101393.06;;;13.45;62.22
18755;BME280;35061;47.664;9.166;2023-05-01T00:12:15;101391.92;;;13.43;62.42
18755;BME280;35061;47.664;9.166;2023-05-01T00:14:43;101391.13;;;13.42;63.02
18755;BME280;35061;47.664;9.166;2023-05-01T00:17:11;101385.61;;;13.38;63.93
18755;BME280;35061;47.664;9.166;2023-05-01T00:19:40;101384.23;;;13.34;64.69
18755;BME280;35061;47.664;9.166;2023-05-01T00:22:08;101384.95;;;13.29;65.32
18755;BME280;35061;47.664;9.166;2023-05-01T00:24:35;101383.05;;;13.25;65.78
18755;BME280;35061;47.664;9.166;2023-05-01T00:27:04;101381.39;;;13.19;66.30
18755;BME280;35061;47.664;9.166;2023-05-01T00:29:32;101382.17;;;13.19;66.58
18755;BME280;35061;47.664;9.166;2023-05-01T00:32:00;101381.59;;;13.15;66.96
18755;BME280;35061;47.664;9.166;2023-05-01T00:34:28;101385.45;;;13.12;67.23
18755;BME280;35061;47.664;9.166;2023-05-01T00:36:56;101384.37;;;13.09;67.29
18755;BME280;35061;47.664;9.166;2023-05-01T00:39:25;101376.95;;;13.03;67.67
18755;BME280;35061;47.664;9.166;2023-05-01T00:41:53;101382.60;;;12.97;67.97
18755;BME280;35061;47.664;9.166;2023-05-01T00:44:22;101377.66;;;12.97;67.93
18755;BME280;35061;47.664;9.166;2023-05-01T00:46:50;101383.58;;;12.94;68.04
18755;BME280;35061;47.664;9.166;2023-05-01T00:49:19;101380.45;;;12.92;68.14
18755;BME280;35061;47.664;9.166;2023-05-01T00:51:48;101380.12;;;12.90;68.32
18755;BME280;35061;47.664;9.166;2023-05-01T00:54:20;101388.45;;;12.88;68.47
18755;BME280;35061;47.664;9.166;2023-05-01T00:56:50;101384.98;;;12.83;68.62
18755;BME280;35061;47.664;9.166;2023-05-01T00:59:19;101374.49;;;12.80;68.91
18755;BME280;35061;47.664;9.166;2023-05-01T01:01:47;101370.89;;;12.70;70.87
18755;BME280;35061;47.664;9.166;2023-05-01T01:04:15;101371.91;;;12.67;70.01
18755;BME280;35061;47.664;9.166;2023-05-01T01:06:54;101378.64;;;12.64;70.41
18755;BME280;35061;47.664;9.166;2023-05-01T01:12:14;101367.85;;;12.59;71.61
18755;BME280;35061;47.664;9.166;2023-05-01T01:14:54;101368.02;;;12.55;72.21
18755;BME280;35061;47.664;9.166;2023-05-01T01:17:40;101362.20;;;12.50;72.23
18755;BME280;35061;47.664;9.166;2023-05-01T01:20:13;101358.63;;;12.40;75.28
18755;BME280;35061;47.664;9.166;2023-05-01T01:22:52;101351.38;;;12.30;74.41
18755;BME280;35061;47.664;9.166;2023-05-01T01:34:33;101350.59;;;11.90;77.43
18755;BME280;35061;47.664;9.166;2023-05-01T01:37:21;101351.53;;;11.86;77.83
18755;BME280;35061;47.664;9.166;2023-05-01T01:40:01;101344.21;;;11.85;78.37
18755;BME280;35061;47.664;9.166;2023-05-01T01:42:36;101345.98;;;11.83;78.72
18755;BME280;35061;47.664;9.166;2023-05-01T01:45:16;101359.25;;;11.80;79.13
18755;BME280;35061;47.664;9.166;2023-05-01T01:47:46;101355.55;;;11.80;80.07
18755;BME280;35061;47.664;9.166;2023-05-01T01:50:15;101352.41;;;11.78;79.60
18755;BME280;35061;47.664;9.166;2023-05-01T01:52:48;101355.75;;;11.76;80.26
18755;BME280;35061;47.664;9.166;2023-05-01T01:55:17;101362.00;;;11.75;80.76
18755;BME280;35061;47.664;9.166;2023-05-01T01:57:49;101368.70;;;11.71;80.95
18755;BME280;35061;47.664;9.166;2023-05-01T02:00:19;101357.72;;;11.70;81.43
18755;BME280;35061;47.664;9.166;2023-05-01T02:02:47;101361.09;;;11.68;81.79
18755;BME280;35061;47.664;9.166;2023-05-01T02:05:16;101357.91;;;11.66;82.31
18755;BME280;35061;47.664;9.166;2023-05-01T02:07:47;101357.09;;;11.66;82.56
18755;BME280;35061;47.664;9.166;2023-05-01T02:10:17;101346.59;;;11.63;82.75
18755;BME280;35061;47.664;9.166;2023-05-01T02:12:47;101356.21;;;11.59;82.93
18755;BME280;35061;47.664;9.166;2023-05-01T02:15:18;101356.67;;;11.58;82.92
18755;BME280;35061;47.664;9.166;2023-05-01T02:17:48;101352.71;;;11.55;83.16
18755;BME280;35061;47.664;9.166;2023-05-01T02:20:18;101359.71;;;11.54;83.43
18755;BME280;35061;47.664;9.166;2023-05-01T02:22:49;101358.92;;;11.54;83.62
18755;BME280;35061;47.664;9.166;2023-05-01T02:25:19;101361.02;;;11.53;84.14
18755;BME280;35061;47.664;9.166;2023-05-01T02:28:02;101364.35;;;11.52;84.11
18755;BME280;35061;47.664;9.166;2023-05-01T02:30:34;101362.98;;;11.47;85.68
18755;BME280;35061;47.664;9.166;2023-05-01T02:33:02;101367.10;;;11.46;84.59
18755;BME280;35061;47.664;9.166;2023-05-01T02:35:30;101360.27;;;11.43;84.64
18755;BME280;35061;47.664;9.166;2023-05-01T02:37:58;101366.97;;;11.40;84.90
18755;BME280;35061;47.664;9.166;2023-05-01T02:40:26;101368.73;;;11.38;84.98
18755;BME280;35061;47.664;9.166;2023-05-01T02:42:55;101364.29;;;11.37;85.20
18755;BME280;35061;47.664;9.166;2023-05-01T02:45:24;101359.22;;;11.31;85.77
18755;BME280;35061;47.664;9.166;2023-05-01T02:47:56;101364.65;;;11.29;85.73
18755;BME280;35061;47.664;9.166;2023-05-01T02:50:26;101360.20;;;11.28;86.15
18755;BME280;35061;47.664;9.166;2023-05-01T02:52:55;101361.48;;;11.27;86.40
18755;BME280;35061;47.664;9.166;2023-05-01T02:55:23;101357.03;;;11.26;86.68
18755;BME280;35061;47.664;9.166;2023-05-01T02:57:51;101348.10;;;11.24;86.97
18755;BME280;35061;47.664;9.166;2023-05-01T03:00:19;101356.38;;;11.22;87.14
18755;BME280;35061;47.664;9.166;2023-05-01T03:02:47;101356.38;;;11.22;87.48
18755;BME280;35061;47.664;9.166;2023-05-01T03:05:15;101349.09;;;11.21;87.95
18755;BME280;35061;47.664;9.166;2023-05-01T03:07:43;101351.63;;;11.19;89.27
18755;BME280;35061;47.664;9.166;2023-05-01T03:10:12;101348.46;;;11.17;88.26
18755;BME280;35061;47.664;9.166;2023-05-01T03:12:40;101343.69;;;11.14;88.72
18755;BME280;35061;47.664;9.166;2023-05-01T03:15:08;101341.49;;;11.09;89.58
18755;BME280;35061;47.664;9.166;2023-05-01T03:17:38;101341.66;;;11.05;88.90
18755;BME280;35061;47.664;9.166;2023-05-01T03:20:07;101339.60;;;11.06;88.99
18755;BME280;35061;47.664;9.166;2023-05-01T03:22:36;101334.83;;;11.02;89.19
18755;BME280;35061;47.664;9.166;2023-05-01T03:25:04;101336.10;;;11.01;89.40
18755;BME280;35061;47.664;9.166;2023-05-01T03:27:32;101344.70;;;11.01;89.54
18755;BME280;35061;47.664;9.166;2023-05-01T03:30:00;101342.12;;;11.03;89.92
18755;BME280;35061;47.664;9.166;2023-05-01T03:32:28;101338.20;;;11.01;89.97
18755;BME280;35061;47.664;9.166;2023-05-01T03:34:56;101339.77;;;11.02;90.30
18755;BME280;35061;47.664;9.166;2023-05-01T03:37:24;101331.16;;;11.02;90.62
18755;BME280;35061;47.664;9.166;2023-05-01T03:39:52;101332.44;;;11.01;90.74
18755;BME280;35061;47.664;9.166;2023-05-01T03:42:21;101330.54;;;10.98;90.86
18755;BME280;35061;47.664;9.166;2023-05-01T03:44:49;101327.20;;;10.99;91.00
18755;BME280;35061;47.664;9.166;2023-05-01T03:47:17;101333.62;;;10.94;91.34
18755;BME280;35061;47.664;9.166;2023-05-01T03:49:46;101333.95;;;10.87;92.82
18755;BME280;35061;47.664;9.166;2023-05-01T03:52:14;101341.10;;;10.82;92.71
18755;BME280;35061;47.664;9.166;2023-05-01T03:54:43;101340.52;;;10.78;92.47
18755;BME280;35061;47.664;9.166;2023-05-01T03:57:11;101346.23;;;10.78;93.13
18755;BME280;35061;47.664;9.166;2023-05-01T03:59:39;101338.75;;;10.71;93.11
18755;BME280;35061;47.664;9.166;2023-05-01T04:02:07;101343.39;;;10.69;93.21
18755;BME280;35061;47.664;9.166;2023-05-01T04:04:35;101339.73;;;10.68;93.33
18755;BME280;35061;47.664;9.166;2023-05-01T04:07:03;101341.01;;;10.67;93.17
18755;BME280;35061;47.664;9.166;2023-05-01T04:09:32;101339.41;;;10.66;93.24
18755;BME280;35061;47.664;9.166;2023-05-01T04:12:00;101338.78;;;10.62;93.87
18755;BME280;35061;47.664;9.166;2023-05-01T04:14:29;101335.77;;;10.56;93.94
18755;BME280;35061;47.664;9.166;2023-05-01T04:16:57;101343.27;;;10.54;94.23
18755;BME280;35061;47.664;9.166;2023-05-01T04:19:26;101347.58;;;10.49;95.55
18755;BME280;35061;47.664;9.166;2023-05-01T04:21:54;101345.16;;;10.47;94.77
18755;BME280;35061;47.664;9.166;2023-05-01T04:24:22;101341.98;;;10.45;94.53
18755;BME280;35061;47.664;9.166;2023-05-01T04:26:50;101345.65;;;10.46;94.54
18755;BME280;35061;47.664;9.166;2023-05-01T04:29:18;101344.57;;;10.43;94.84
18755;BME280;35061;47.664;9.166;2023-05-01T04:31:46;101341.01;;;10.39;94.87
18755;BME280;35061;47.664;9.166;2023-05-01T04:34:14;101346.44;;;10.37;95.52
18755;BME280;35061;47.664;9.166;2023-05-01T04:36:42;101347.41;;;10.34;96.02
18755;BME280;35061;47.664;9.166;2023-05-01T04:39:11;101345.81;;;10.33;96.40
18755;BME280;35061;47.664;9.166;2023-05-01T04:41:38;101334.04;;;10.31;96.11
18755;BME280;35061;47.664;9.166;2023-05-01T04:44:07;101343.42;;;10.31;96.09
18755;BME280;35061;47.664;9.166;2023-05-01T04:46:34;101347.09;;;10.32;96.20
18755;BME280;35061;47.664;9.166;2023-05-01T04:49:03;101343.88;;;10.30;96.64
18755;BME280;35061;47.664;9.166;2023-05-01T04:51:30;101357.09;;;10.27;96.78
18755;BME280;35061;47.664;9.166;2023-05-01T04:53:58;101346.76;;;10.30;96.42
18755;BME280;35061;47.664;9.166;2023-05-01T04:56:26;101362.20;;;10.32;96.57
18755;BME280;35061;47.664;9.166;2023-05-01T04:58:54;101355.69;;;10.32;97.07
18755;BME280;35061;47.664;9.166;2023-05-01T05:01:22;101351.24;;;10.31;97.42
18755;BME280;35061;47.664;9.166;2023-05-01T05:03:50;101355.98;;;10.34;97.25
18755;BME280;35061;47.664;9.166;2023-05-01T05:06:19;101361.70;;;10.34;97.77
18755;BME280;35061;47.664;9.166;2023-05-01T05:08:47;101362.98;;;10.33;97.62
18755;BME280;35061;47.664;9.166;2023-05-01T05:11:18;101357.59;;;10.26;97.67
18755;BME280;35061;47.664;9.166;2023-05-01T05:13:46;101363.14;;;10.29;97.22
18755;BME280;35061;47.664;9.166;2023-05-01T05:16:14;101361.05;;;10.30;98.14
18755;BME280;35061;47.664;9.166;2023-05-01T05:18:43;101372.53;;;10.30;98.02
18755;BME280;35061;47.664;9.166;2023-05-01T05:21:10;101369.65;;;10.30;98.38
18755;BME280;35061;47.664;9.166;2023-05-01T05:23:38;101372.37;;;10.33;97.63
18755;BME280;35061;47.664;9.166;2023-05-01T05:26:07;101380.80;;;10.37;97.58
18755;BME280;35061;47.664;9.166;2023-05-01T05:28:35;101377.14;;;10.37;98.15
18755;BME280;35061;47.664;9.166;2023-05-01T05:31:03;101380.80;;;10.37;98.28
18755;BME280;35061;47.664;9.166;2023-05-01T05:33:31;101376.65;;;10.38;97.80
18755;BME280;35061;47.664;9.166;2023-05-01T05:35:59;101379.04;;;10.40;97.72
18755;BME280;35061;47.664;9.166;2023-05-01T05:38:27;101380.64;;;10.41;98.37
18755;BME280;35061;47.664;9.166;2023-05-01T05:40:55;101373.31;;;10.40;98.55
18755;BME280;35061;47.664;9.166;2023-05-01T05:43:23;101381.78;;;10.43;98.11
18755;BME280;35061;47.664;9.166;2023-05-01T05:45:57;101383.68;;;10.46;97.69
18755;BME280;35061;47.664;9.166;2023-05-01T05:48:25;101386.52;;;10.46;98.16
18755;BME280;35061;47.664;9.166;2023-05-01T05:50:54;101381.62;;;10.47;97.85
18755;BME280;35061;47.664;9.166;2023-05-01T05:53:24;101384.30;;;10.51;97.67
18755;BME280;35061;47.664;9.166;2023-05-01T05:55:52;101383.05;;;10.52;97.22
18755;BME280;35061;47.664;9.166;2023-05-01T05:58:20;101384.62;;;10.53;97.32
18755;BME280;35061;47.664;9.166;2023-05-01T06:00:49;101387.02;;;10.54;97.23
18755;BME280;35061;47.664;9.166;2023-05-01T06:03:17;101390.19;;;10.56;96.84
18755;BME280;35061;47.664;9.166;2023-05-01T06:05:46;101383.98;;;10.58;96.88
18755;BME280;35061;47.664;9.166;2023-05-01T06:08:14;101376.48;;;10.60;97.08
18755;BME280;35061;47.664;9.166;2023-05-01T06:10:43;101380.48;;;10.63;96.66
18755;BME280;35061;47.664;9.166;2023-05-01T06:13:11;101388.59;;;10.65;96.68
18755;BME280;35061;47.664;9.166;2023-05-01T06:15:40;101384.43;;;10.66;96.82
18755;BME280;35061;47.664;9.166;2023-05-01T06:18:08;101391.89;;;10.72;96.77
18755;BME280;35061;47.664;9.166;2023-05-01T06:20:36;101389.99;;;10.79;96.62
18755;BME280;35061;47.664;9.166;2023-05-01T06:23:05;101393.00;;;10.84;96.41
18755;BME280;35061;47.664;9.166;2023-05-01T06:25:35;101387.41;;;10.90;96.11
18755;BME280;35061;47.664;9.166;2023-05-01T06:28:04;101382.80;;;10.93;96.05
18755;BME280;35061;47.664;9.166;2023-05-01T06:30:32;101396.63;;;10.94;96.46
18755;BME280;35061;47.664;9.166;2023-05-01T06:33:00;101391.69;;;10.95;96.59
18755;BME280;35061;47.664;9.166;2023-05-01T06:35:28;101391.04;;;11.00;96.22
18755;BME280;35061;47.664;9.166;2023-05-01T06:37:56;101392.64;;;11.01;95.96
18755;BME280;35061;47.664;9.166;2023-05-01T06:40:24;101385.45;;;11.06;95.94
18755;BME280;35061;47.664;9.166;2023-05-01T06:42:52;101390.84;;;11.03;94.71
18755;BME280;35061;47.664;9.166;2023-05-01T06:45:20;101394.05;;;11.06;94.71
18755;BME280;35061;47.664;9.166;2023-05-01T06:47:48;101401.53;;;11.03;94.28
18755;BME280;35061;47.664;9.166;2023-05-01T06:50:16;101399.44;;;11.03;94.30
18755;BME280;35061;47.664;9.166;2023-05-01T06:52:44;101403.13;;;11.04;94.30
18755;BME280;35061;47.664;9.166;2023-05-01T06:55:12;101395.65;;;11.07;94.18
18755;BME280;35061;47.664;9.166;2023-05-01T06:57:40;101395.48;;;11.10;94.05
18755;BME280;35061;47.664;9.166;2023-05-01T07:00:08;101399.93;;;11.11;93.99
18755;BME280;35061;47.664;9.166;2023-05-01T07:02:37;101398.95;;;11.14;93.80
18755;BME280;35061;47.664;9.166;2023-05-01T07:05:07;101400.84;;;11.17;93.72
18755;BME280;35061;47.664;9.166;2023-05-01T07:07:35;101400.06;;;11.17;93.32
18755;BME280;35061;47.664;9.166;2023-05-01T07:10:12;101408.17;;;11.19;93.38
18755;BME280;35061;47.664;9.166;2023-05-01T07:12:40;101407.02;;;11.25;93.63
18755;BME280;35061;47.664;9.166;2023-05-01T07:15:08;101406.08;;;11.28;93.25
18755;BME280;35061;47.664;9.166;2023-05-01T07:17:36;101402.22;;;11.31;93.24
18755;BME280;35061;47.664;9.166;2023-05-01T07:20:05;101402.35;;;11.37;93.17
18755;BME280;35061;47.664;9.166;2023-05-01T07:22:33;101402.97;;;11.41;93.25
18755;BME280;35061;47.664;9.166;2023-05-01T07:25:01;101402.48;;;11.43;92.82
18755;BME280;35061;47.664;9.166;2023-05-01T07:27:30;101402.02;;;11.44;92.63
18755;BME280;35061;47.664;9.166;2023-05-01T07:29:59;101402.77;;;11.45;92.61
18755;BME280;35061;47.664;9.166;2023-05-01T07:32:27;101400.72;;;11.45;92.69
18755;BME280;35061;47.664;9.166;2023-05-01T07:34:55;101399.44;;;11.47;92.79
18755;BME280;35061;47.664;9.166;2023-05-01T07:37:23;101393.52;;;11.50;93.13
18755;BME280;35061;47.664;9.166;2023-05-01T07:39:53;101397.67;;;11.49;92.46
18755;BME280;35061;47.664;9.166;2023-05-01T07:42:21;101402.91;;;11.51;92.97
18755;BME280;35061;47.664;9.166;2023-05-01T07:44:50;101398.16;;;11.48;92.99
18755;BME280;35061;47.664;9.166;2023-05-01T07:47:18;101405.00;;;11.50;92.85
18755;BME280;35061;47.664;9.166;2023-05-01T07:49:46;101403.04;;;11.56;93.06
18755;BME280;35061;47.664;9.166;2023-05-01T07:52:14;101402.58;;;11.58;92.54
18755;BME280;35061;47.664;9.166;2023-05-01T07:54:42;101399.84;;;11.64;92.74
18755;BME280;35061;47.664;9.166;2023-05-01T07:57:10;101402.05;;;11.69;92.60
18755;BME280;35061;47.664;9.166;2023-05-01T07:59:38;101411.54;;;11.75;92.36
18755;BME280;35061;47.664;9.166;2023-05-01T08:02:06;101408.50;;;11.79;92.29
18755;BME280;35061;47.664;9.166;2023-05-01T08:04:34;101408.34;;;11.82;91.96
18755;BME280;35061;47.664;9.166;2023-05-01T08:07:02;101408.76;;;11.90;91.92
18755;BME280;35061;47.664;9.166;2023-05-01T08:09:30;101421.16;;;11.96;91.81
18755;BME280;35061;47.664;9.166;2023-05-01T08:11:58;101410.95;;;11.95;91.30
18755;BME280;35061;47.664;9.166;2023-05-01T08:14:27;101412.72;;;11.93;91.33
18755;BME280;35061;47.664;9.166;2023-05-01T08:16:55;101416.70;;;11.95;91.48
18755;BME280;35061;47.664;9.166;2023-05-01T08:19:23;101419.23;;;12.03;91.50
18755;BME280;35061;47.664;9.166;2023-05-01T08:21:51;101415.17;;;12.09;91.19
18755;BME280;35061;47.664;9.166;2023-05-01T08:24:19;101416.38;;;12.18;91.39
18755;BME280;35061;47.664;9.166;2023-05-01T08:26:47;101423.25;;;12.20;91.31
18755;BME280;35061;47.664;9.166;2023-05-01T08:29:15;101420.08;;;12.18;91.05
18755;BME280;35061;47.664;9.166;2023-05-01T08:31:44;101417.39;;;12.14;90.98
18755;BME280;35061;47.664;9.166;2023-05-01T08:34:12;101423.61;;;12.13;91.16
18755;BME280;35061;47.664;9.166;2023-05-01T08:36:40;101422.00;;;12.12;91.42
18755;BME280;35061;47.664;9.166;2023-05-01T08:39:08;101428.58;;;12.12;91.72
18755;BME280;35061;47.664;9.166;2023-05-01T08:41:36;101424.88;;;12.12;91.67
18755;BME280;35061;47.664;9.166;2023-05-01T08:44:07;101426.48;;;12.13;92.01
18755;BME280;35061;47.664;9.166;2023-05-01T08:49:14;101421.25;;;12.11;92.34
18755;BME280;35061;47.664;9.166;2023-05-01T08:51:46;101425.02;;;12.18;91.85
18755;BME280;35061;47.664;9.166;2023-05-01T08:54:19;101429.66;;;12.15;91.98
18755;BME280;35061;47.664;9.166;2023-05-01T08:56:49;101434.13;;;12.16;91.81
18755;BME280;35061;47.664;9.166;2023-05-01T08:59:18;101430.44;;;12.16;91.86
18755;BME280;35061;47.664;9.166;2023-05-01T09:01:48;101434.79;;;12.11;91.86
18755;BME280;35061;47.664;9.166;2023-05-01T09:04:18;101430.63;;;12.12;92.00
18755;BME280;35061;47.664;9.166;2023-05-01T09:06:46;101436.39;;;12.12;92.08
18755;BME280;35061;47.664;9.166;2023-05-01T09:09:14;101437.18;;;12.12;91.94
18755;BME280;35061;47.664;9.166;2023-05-01T09:11:43;101440.35;;;12.14;92.24
18755;BME280;35061;47.664;9.166;2023-05-01T09:14:11;101438.38;;;12.21;92.18
18755;BME280;35061;47.664;9.166;2023-05-01T09:16:39;101440.58;;;12.26;92.13
18755;BME280;35061;47.664;9.166;2023-05-01T09:19:08;101438.48;;;12.26;92.36
18755;BME280;35061;47.664;9.166;2023-05-01T09:21:36;101438.71;;;12.23;92.19
18755;BME280;35061;47.664;9.166;2023-05-01T09:24:04;101437.11;;;12.22;92.54
18755;BME280;35061;47.664;9.166;2023-05-01T09:26:33;101439.30;;;12.27;93.20
18755;BME280;35061;47.664;9.166;2023-05-01T09:29:03;101439.11;;;12.31;92.47
18755;BME280;35061;47.664;9.166;2023-05-01T09:31:32;101441.10;;;12.39;92.48
18755;BME280;35061;47.664;9.166;2023-05-01T09:34:03;101442.21;;;12.42;92.62
18755;BME280;35061;47.664;9.166;2023-05-01T09:36:32;101441.52;;;12.47;92.45
18755;BME280;35061;47.664;9.166;2023-05-01T09:39:01;101447.09;;;12.51;92.26
18755;BME280;35061;47.664;9.166;2023-05-01T09:41:29;101444.21;;;12.51;91.88
18755;BME280;35061;47.664;9.166;2023-05-01T09:44:00;101444.99;;;12.51;92.16
18755;BME280;35061;47.664;9.166;2023-05-01T09:46:40;101454.12;;;12.50;92.00
18755;BME280;35061;47.664;9.166;2023-05-01T09:49:09;101450.03;;;12.41;92.11
18755;BME280;35061;47.664;9.166;2023-05-01T09:51:37;101438.84;;;12.44;91.73
18755;BME280;35061;47.664;9.166;2023-05-01T09:54:17;101445.19;;;12.48;91.86
18755;BME280;35061;47.664;9.166;2023-05-01T09:56:48;101444.50;;;12.53;92.01
18755;BME280;35061;47.664;9.166;2023-05-01T09:59:18;101444.11;;;12.60;92.00
18755;BME280;35061;47.664;9.166;2023-05-01T10:01:47;101446.10;;;12.69;91.80
18755;BME280;35061;47.664;9.166;2023-05-01T10:04:16;101447.31;;;12.77;91.99
18755;BME280;35061;47.664;9.166;2023-05-01T10:06:44;101450.09;;;12.87;91.34
18755;BME280;35061;47.664;9.166;2023-05-01T10:09:25;101441.10;;;12.94;91.10
18755;BME280;35061;47.664;9.166;2023-05-01T10:11:55;101439.70;;;13.04;91.26
18755;BME280;35061;47.664;9.166;2023-05-01T10:14:24;101447.12;;;13.11;90.03
18755;BME280;35061;47.664;9.166;2023-05-01T10:16:53;101445.45;;;13.19;90.26
18755;BME280;35061;47.664;9.166;2023-05-01T10:19:23;101438.48;;;13.26;89.99
18755;BME280;35061;47.664;9.166;2023-05-01T10:21:51;101438.48;;;13.26;88.89
18755;BME280;35061;47.664;9.166;2023-05-01T10:24:20;101440.64;;;13.31;89.36
18755;BME280;35061;47.664;9.166;2023-05-01T10:26:48;101436.09;;;13.39;89.13
18755;BME280;35061;47.664;9.166;2023-05-01T10:29:19;101446.01;;;13.53;88.77
18755;BME280;35061;47.664;9.166;2023-05-01T10:31:50;101440.91;;;13.63;88.27
18755;BME280;35061;47.664;9.166;2023-05-01T10:34:20;101440.31;;;13.74;87.80
18755;BME280;35061;47.664;9.166;2023-05-01T10:37:15;101437.57;;;13.86;87.71
18755;BME280;35061;47.664;9.166;2023-05-01T10:39:46;101434.66;;;14.01;87.97
18755;BME280;35061;47.664;9.166;2023-05-01T10:42:13;101434.43;;;14.04;86.83
18755;BME280;35061;47.664;9.166;2023-05-01T10:44:42;101427.37;;;14.05;86.34
18755;BME280;35061;47.664;9.166;2023-05-01T10:50:08;101439.59;;;14.00;85.22
18755;BME280;35061;47.664;9.166;2023-05-01T10:55:40;101439.59;;;14.00;85.42
18755;BME280;35061;47.664;9.166;2023-05-01T11:01:26;101426.95;;;14.13;84.07
18755;BME280;35061;47.664;9.166;2023-05-01T11:03:57;101428.80;;;14.16;84.69
18755;BME280;35061;47.664;9.166;2023-05-01T11:06:25;101429.10;;;14.18;84.79
18755;BME280;35061;47.664;9.166;2023-05-01T11:08:54;101420.04;;;14.25;84.64
18755;BME280;35061;47.664;9.166;2023-05-01T11:14:05;101423.54;;;14.35;84.17
18755;BME280;35061;47.664;9.166;2023-05-01T11:21:48;101420.50;;;14.44;82.93
18755;BME280;35061;47.664;9.166;2023-05-01T11:24:18;101417.06;;;14.40;82.60
18755;BME280;35061;47.664;9.166;2023-05-01T11:26:47;101421.22;;;14.39;82.61
18755;BME280;35061;47.664;9.166;2023-05-01T11:29:15;101421.91;;;14.28;81.90
18755;BME280;35061;47.664;9.166;2023-05-01T11:31:47;101413.11;;;14.17;82.52
18755;BME280;35061;47.664;9.166;2023-05-01T11:34:15;101414.65;;;14.12;82.96
18755;BME280;35061;47.664;9.166;2023-05-01T11:36:48;101409.58;;;14.07;83.20
18755;BME280;35061;47.664;9.166;2023-05-01T11:39:16;101416.22;;;13.92;83.16
18755;BME280;35061;47.664;9.166;2023-05-01T11:41:45;101416.87;;;13.81;83.71
18755;BME280;35061;47.664;9.166;2023-05-01T11:44:15;101416.38;;;13.68;84.08
18755;BME280;35061;47.664;9.166;2023-05-01T11:46:44;101412.13;;;13.63;84.48
18755;BME280;35061;47.664;9.166;2023-05-01T11:49:12;101409.38;;;13.54;84.31
18755;BME280;35061;47.664;9.166;2023-05-01T11:51:40;101402.58;;;13.51;85.53
18755;BME280;35061;47.664;9.166;2023-05-01T11:54:09;101409.09;;;13.52;85.49
18755;BME280;35061;47.664;9.166;2023-05-01T11:56:40;101406.73;;;13.50;85.62
18755;BME280;35061;47.664;9.166;2023-05-01T11:59:15;101408.83;;;13.50;87.02
18755;BME280;35061;47.664;9.166;2023-05-01T12:01:44;101411.21;;;13.51;86.38
18755;BME280;35061;47.664;9.166;2023-05-01T12:04:23;101407.52;;;13.51;86.52
18755;BME280;35061;47.664;9.166;2023-05-01T12:06:57;101409.91;;;13.52;87.34
18755;BME280;35061;47.664;9.166;2023-05-01T12:09:25;101412.26;;;13.54;86.63
18755;BME280;35061;47.664;9.166;2023-05-01T12:11:54;101403.85;;;13.50;86.53
18755;BME280;35061;47.664;9.166;2023-05-01T12:14:22;101407.52;;;13.51;86.67
18755;BME280;35061;47.664;9.166;2023-05-01T12:16:51;101402.05;;;13.53;86.53
18755;BME280;35061;47.664;9.166;2023-05-01T12:19:19;101402.58;;;13.51;86.74
18755;BME280;35061;47.664;9.166;2023-05-01T12:22:04;101402.13;;;13.59;87.11
18755;BME280;35061;47.664;9.166;2023-05-01T12:24:32;101401.14;;;13.62;87.04
18755;BME280;35061;47.664;9.166;2023-05-01T12:27:01;101402.61;;;13.72;87.09
18755;BME280;35061;47.664;9.166;2023-05-01T12:29:40;101405.36;;;13.81;86.81
18755;BME280;35061;47.664;9.166;2023-05-01T12:32:08;101399.73;;;13.93;86.81
18755;BME280;35061;47.664;9.166;2023-05-01T12:34:37;101398.07;;;14.07;86.44
18755;BME280;35061;47.664;9.166;2023-05-01T12:37:05;101395.55;;;14.15;85.73
18755;BME280;35061;47.664;9.166;2023-05-01T12:39:42;101403.73;;;14.22;82.99
18755;BME280;35061;47.664;9.166;2023-05-01T12:42:12;101409.09;;;14.29;82.86
18755;BME280;35061;47.664;9.166;2023-05-01T12:44:42;101405.30;;;14.44;83.42
18755;BME280;35061;47.664;9.166;2023-05-01T12:47:11;101394.90;;;14.52;83.07
18755;BME280;35061;47.664;9.166;2023-05-01T12:49:39;101407.35;;;14.64;83.02
18755;BME280;35061;47.664;9.166;2023-05-01T12:52:08;101408.99;;;14.71;83.04
18755;BME280;35061;47.664;9.166;2023-05-01T12:54:37;101403.59;;;14.78;83.06
18755;BME280;35061;47.664;9.166;2023-05-01T12:59:39;101408.86;;;14.80;82.54
18755;BME280;35061;47.664;9.166;2023-05-01T13:02:12;101416.41;;;14.77;82.36
18755;BME280;35061;47.664;9.166;2023-05-01T13:04:44;101412.45;;;14.75;82.47
18755;BME280;35061;47.664;9.166;2023-05-01T13:07:17;101414.09;;;14.55;85.19
18755;BME280;35061;47.664;9.166;2023-05-01T13:09:56;101417.10;;;13.99;92.88
18755;BME280;35061;47.664;9.166;2023-05-01T13:12:26;101425.66;;;13.57;96.58
18755;BME280;35061;47.664;9.166;2023-05-01T13:14:55;101423.41;;;13.31;97.18
18755;BME280;35061;47.664;9.166;2023-05-01T13:17:24;101425.70;;;13.12;98.45
18755;BME280;35061;47.664;9.166;2023-05-01T13:22:33;101433.13;;;12.74;100.00
18755;BME280;35061;47.664;9.166;2023-05-01T13:25:18;101431.32;;;12.61;100.00
18755;BME280;35061;47.664;9.166;2023-05-01T13:27:51;101434.20;;;12.46;100.00
18755;BME280;35061;47.664;9.166;2023-05-01T13:30:20;101431.78;;;12.30;100.00
18755;BME280;35061;47.664;9.166;2023-05-01T13:32:57;101432.63;;;12.21;100.00
18755;BME280;35061;47.664;9.166;2023-05-01T13:35:26;101431.62;;;12.09;100.00
18755;BME280;35061;47.664;9.166;2023-05-01T13:37:54;101429.43;;;12.04;100.00
18755;BME280;35061;47.664;9.166;2023-05-01T13:40:23;101431.95;;;12.01;99.98